createdAt,value
2023-03-10T14:15:42.229Z,10.80
2023-03-10T14:18:20.600Z,10.70
2023-03-10T14:20:49.586Z,10.80
2023-03-10T14:23:27.116Z,10.70
2023-03-10T14:25:57.041Z,10.60
2023-03-10T14:28:27.220Z,10.50
2023-03-10T14:30:57.023Z,10.50
2023-03-10T14:33:25.175Z,10.60
2023-03-10T14:35:53.418Z,10.70
2023-03-10T14:38:22.229Z,10.70
2023-03-10T14:40:52.658Z,10.70
2023-03-10T14:43:24.158Z,10.50
2023-03-10T14:45:53.580Z,10.40
2023-03-10T14:48:26.633Z,10.40
2023-03-10T14:50:56.848Z,10.40
2023-03-10T14:53:27.148Z,10.40
2023-03-10T14:55:58.060Z,10.30
2023-03-10T14:58:31.317Z,10.30
2023-03-10T15:01:00.188Z,10.30
2023-03-10T15:03:29.721Z,10.20
2023-03-10T15:05:57.933Z,10.20
2023-03-10T15:08:30.659Z,10.20
2023-03-10T15:10:59.522Z,10.20
2023-03-10T15:13:27.665Z,10.20
2023-03-10T15:15:55.822Z,10.20
2023-03-10T15:18:27.123Z,10.20
2023-03-10T15:20:59.173Z,10.20
2023-03-10T15:23:28.955Z,10.20
2023-03-10T15:25:57.987Z,10.10
2023-03-10T15:28:26.443Z,9.90
2023-03-10T15:30:55.596Z,9.80
2023-03-10T15:33:26.288Z,9.80
2023-03-10T15:35:56.324Z,9.70
2023-03-10T15:38:24.586Z,9.50
2023-03-10T15:40:52.652Z,9.30
2023-03-10T15:43:20.779Z,9.30
2023-03-10T15:45:49.331Z,9.20
2023-03-10T15:48:18.632Z,9.20
2023-03-10T15:50:48.039Z,9.10
2023-03-10T15:53:17.558Z,9.10
2023-03-10T15:55:45.736Z,9.00
2023-03-10T15:58:14.179Z,8.90
2023-03-10T16:00:44.132Z,8.80
2023-03-10T16:03:12.413Z,8.70
2023-03-10T16:05:47.815Z,8.50
2023-03-10T16:08:19.250Z,8.40
2023-03-10T16:10:53.440Z,8.40
2023-03-10T16:13:22.099Z,8.30
2023-03-10T16:15:50.207Z,8.30
2023-03-10T16:18:18.467Z,8.30
2023-03-10T16:20:46.668Z,8.20
2023-03-10T16:23:15.382Z,8.10
2023-03-10T16:25:46.262Z,8.10
2023-03-10T16:28:14.440Z,7.90
2023-03-10T16:30:42.590Z,7.80
2023-03-10T16:33:10.793Z,7.70
2023-03-10T16:35:40.830Z,7.60
2023-03-10T16:38:09.011Z,7.50
2023-03-10T16:40:37.015Z,7.40
2023-03-10T16:43:08.897Z,7.40
2023-03-10T16:45:36.983Z,7.40
2023-03-10T16:48:05.961Z,7.40
2023-03-10T16:50:35.638Z,7.40
2023-03-10T16:53:05.798Z,7.40
2023-03-10T16:55:33.843Z,7.40
2023-03-10T16:58:05.563Z,7.40
2023-03-10T17:00:40.097Z,7.50
2023-03-10T17:03:08.276Z,7.50
2023-03-10T17:05:37.256Z,7.50
2023-03-10T17:08:06.074Z,7.60
2023-03-10T17:10:36.052Z,7.70
2023-03-10T17:13:04.805Z,7.80
2023-03-10T17:15:34.384Z,7.80
2023-03-10T17:18:02.425Z,7.80
2023-03-10T17:20:30.486Z,7.80
2023-03-10T17:22:58.572Z,7.90
2023-03-10T17:25:27.159Z,7.90
2023-03-10T17:27:55.184Z,7.90
2023-03-10T17:30:23.368Z,7.90
2023-03-10T17:32:52.953Z,7.90
2023-03-10T17:35:21.054Z,7.90
2023-03-10T17:37:49.356Z,7.90
2023-03-10T17:40:19.005Z,7.80
2023-03-10T17:42:47.083Z,7.80
2023-03-10T17:45:15.184Z,7.80
2023-03-10T17:47:43.260Z,7.80
2023-03-10T17:50:13.754Z,7.80
2023-03-10T17:52:41.822Z,7.80
2023-03-10T17:55:10.228Z,7.80
2023-03-10T17:57:40.660Z,7.70
2023-03-10T18:00:10.852Z,7.60
2023-03-10T18:02:40.587Z,7.40
2023-03-10T18:05:09.432Z,7.20
2023-03-10T18:07:40.607Z,7.10
2023-03-10T18:10:12.683Z,7.00
2023-03-10T18:12:40.805Z,6.80
2023-03-10T18:15:10.841Z,6.60
2023-03-10T18:17:39.029Z,6.50
2023-03-10T18:20:10.233Z,6.40
2023-03-10T18:22:39.680Z,6.20
2023-03-10T18:25:09.074Z,6.20
2023-03-10T18:27:37.252Z,6.10
2023-03-10T18:30:08.761Z,6.20
2023-03-10T18:32:36.834Z,6.30
2023-03-10T18:35:05.506Z,6.30
2023-03-10T18:37:34.635Z,6.60
2023-03-10T18:40:05.980Z,6.70
2023-03-10T18:42:34.373Z,6.80
2023-03-10T18:45:02.476Z,6.80
2023-03-10T18:47:31.924Z,6.80
2023-03-10T18:50:00.171Z,6.80
2023-03-10T18:52:28.245Z,6.80
2023-03-10T18:54:56.950Z,6.90
2023-03-10T18:57:26.417Z,6.90
2023-03-10T18:59:54.663Z,6.80
2023-03-10T19:02:27.015Z,6.80
2023-03-10T19:04:56.223Z,6.70
2023-03-10T19:07:24.382Z,6.30
2023-03-10T19:09:54.971Z,6.00
2023-03-10T19:12:24.811Z,5.80
2023-03-10T19:14:57.496Z,5.70
2023-03-10T19:17:26.632Z,5.50
2023-03-10T19:19:55.059Z,5.30
2023-03-10T19:22:23.345Z,5.20
2023-03-10T19:24:53.170Z,5.20
2023-03-10T19:27:21.821Z,5.10
2023-03-10T19:29:52.941Z,4.80
2023-03-10T19:32:22.877Z,4.50
2023-03-10T19:34:51.403Z,4.40
2023-03-10T19:37:19.752Z,4.40
2023-03-10T19:39:48.310Z,4.60
2023-03-10T19:42:16.445Z,4.70
2023-03-10T19:44:45.188Z,4.90
2023-03-10T19:47:13.299Z,4.90
2023-03-10T19:49:42.743Z,4.80
2023-03-10T19:52:12.148Z,4.80
2023-03-10T19:54:41.197Z,4.70
2023-03-10T19:57:14.977Z,4.70
2023-03-10T19:59:43.622Z,4.70
2023-03-10T20:02:16.007Z,4.60
2023-03-10T20:04:46.254Z,4.60
2023-03-10T20:07:14.268Z,4.50
2023-03-10T20:09:42.580Z,4.50
2023-03-10T20:12:10.690Z,4.50
2023-03-10T20:14:39.304Z,4.50
2023-03-10T20:17:08.082Z,4.60
2023-03-10T20:19:36.126Z,4.60
2023-03-10T20:22:05.856Z,4.60
2023-03-10T20:24:34.112Z,4.70
2023-03-10T20:27:03.524Z,4.70
2023-03-10T20:29:33.069Z,4.80
2023-03-10T20:32:01.186Z,4.80
2023-03-10T20:34:29.302Z,4.90
2023-03-10T20:36:57.494Z,4.90
2023-03-10T20:39:27.418Z,5.10
2023-03-10T20:41:55.582Z,5.20
2023-03-10T20:44:23.731Z,5.20
2023-03-10T20:46:51.998Z,5.20
2023-03-10T20:49:20.682Z,5.30
2023-03-10T20:51:49.575Z,5.40
2023-03-10T20:54:18.143Z,5.50
2023-03-10T20:56:50.672Z,5.50
2023-03-10T20:59:19.355Z,5.50
2023-03-10T21:01:47.444Z,5.60
2023-03-10T21:04:16.136Z,5.60
2023-03-10T21:06:44.316Z,5.70
2023-03-10T21:09:12.873Z,5.80
2023-03-10T21:11:41.961Z,5.90
2023-03-10T21:14:11.687Z,5.80
2023-03-10T21:16:42.457Z,5.70
2023-03-10T21:19:11.225Z,5.60
2023-03-10T21:21:39.401Z,5.50
2023-03-10T21:24:08.120Z,5.40
2023-03-10T21:26:37.034Z,5.30
2023-03-10T21:29:06.351Z,5.30
2023-03-10T21:31:36.061Z,5.20
2023-03-10T21:34:04.411Z,5.20
2023-03-10T21:36:32.698Z,5.00
2023-03-10T21:39:00.917Z,4.10
2023-03-10T21:41:31.023Z,3.60
2023-03-10T21:44:00.228Z,3.20
2023-03-10T21:46:28.875Z,3.00
2023-03-10T21:48:58.637Z,3.00
2023-03-10T21:51:27.457Z,3.00
2023-03-10T21:53:56.491Z,3.10
2023-03-10T21:56:29.199Z,3.30
2023-03-10T21:58:58.143Z,3.40
2023-03-10T22:01:27.530Z,3.40
2023-03-10T22:03:59.250Z,3.50
2023-03-10T22:06:28.941Z,3.40
2023-03-10T22:08:57.286Z,3.50
2023-03-10T22:11:25.634Z,3.40
2023-03-10T22:13:54.822Z,3.40
2023-03-10T22:16:23.436Z,3.40
2023-03-10T22:18:51.555Z,3.50
2023-03-10T22:21:19.853Z,3.50
2023-03-10T22:23:51.512Z,3.60
2023-03-10T22:26:19.613Z,3.80
2023-03-10T22:28:48.061Z,4.00
2023-03-10T22:31:16.414Z,4.00
2023-03-10T22:33:44.558Z,4.00
2023-03-10T22:36:13.868Z,4.00
2023-03-10T22:38:41.937Z,4.00
2023-03-10T22:41:13.125Z,3.90
2023-03-10T22:43:41.282Z,4.00
2023-03-10T22:46:11.651Z,3.90
2023-03-10T22:48:39.794Z,3.90
2023-03-10T22:51:11.713Z,3.80
2023-03-10T22:53:40.143Z,3.70
2023-03-10T22:56:08.735Z,3.70
2023-03-10T22:58:38.283Z,3.60
2023-03-10T23:01:07.143Z,3.50
2023-03-10T23:03:36.415Z,3.50
2023-03-10T23:06:08.438Z,3.40
2023-03-10T23:08:37.515Z,3.40
2023-03-10T23:11:14.001Z,3.40
2023-03-10T23:13:44.004Z,3.40
2023-03-10T23:16:12.664Z,3.40
2023-03-10T23:18:41.178Z,3.10
2023-03-10T23:21:09.179Z,2.50
2023-03-10T23:23:39.252Z,2.20
2023-03-10T23:26:07.360Z,2.00
2023-03-10T23:28:38.643Z,1.90
2023-03-10T23:31:09.274Z,1.90
2023-03-10T23:33:37.556Z,1.80
2023-03-10T23:36:06.589Z,1.90
2023-03-10T23:38:35.881Z,1.90
2023-03-10T23:41:04.809Z,1.90
2023-03-10T23:43:34.512Z,2.00
2023-03-10T23:46:04.766Z,2.00
2023-03-10T23:48:34.993Z,2.00
2023-03-10T23:51:03.603Z,2.10
2023-03-10T23:53:32.408Z,2.10
2023-03-10T23:56:00.509Z,2.10
2023-03-10T23:58:29.248Z,2.10
